sensor_id;sensor_type;location;lat;lon;timestamp;temperature;humidity
21149;DHT22;10732;51.472;6.466;2022-11-18T00:00:18;8.50;99.90
21149;DHT22;10732;51.472;6.466;2022-11-18T00:02:44;8.50;99.90
21149;DHT22;10732;51.472;6.466;2022-11-18T00:05:09;8.50;99.90
21149;DHT22;10732;51.472;6.466;2022-11-18T00:07:35;8.50;99.90
21149;DHT22;10732;51.472;6.466;2022-11-18T00:10:00;8.50;99.90
21149;DHT22;10732;51.472;6.466;2022-11-18T00:12:26;8.50;99.90
21149;DHT22;10732;51.472;6.466;2022-11-18T00:15:10;8.50;99.90
21149;DHT22;10732;51.472;6.466;2022-11-18T00:17:35;8.60;99.90
21149;DHT22;10732;51.472;6.466;2022-11-18T00:20:01;8.50;99.90
21149;DHT22;10732;51.472;6.466;2022-11-18T00:22:26;8.50;99.90
21149;DHT22;10732;51.472;6.466;2022-11-18T00:24:52;8.50;99.90
21149;DHT22;10732;51.472;6.466;2022-11-18T00:27:17;8.50;99.90
21149;DHT22;10732;51.472;6.466;2022-11-18T00:29:43;8.50;99.90
21149;DHT22;10732;51.472;6.466;2022-11-18T00:32:08;8.50;99.90
21149;DHT22;10732;51.472;6.466;2022-11-18T00:34:34;8.50;99.90
21149;DHT22;10732;51.472;6.466;2022-11-18T00:36:59;8.50;99.90
21149;DHT22;10732;51.472;6.466;2022-11-18T00:39:25;8.50;99.90
21149;DHT22;10732;51.472;6.466;2022-11-18T00:41:50;8.60;99.90
21149;DHT22;10732;51.472;6.466;2022-11-18T00:44:35;8.60;99.90
21149;DHT22;10732;51.472;6.466;2022-11-18T00:47:01;8.60;99.90
21149;DHT22;10732;51.472;6.466;2022-11-18T00:49:27;8.60;99.90
21149;DHT22;10732;51.472;6.466;2022-11-18T00:51:53;8.60;99.90
21149;DHT22;10732;51.472;6.466;2022-11-18T00:54:19;8.70;99.90
21149;DHT22;10732;51.472;6.466;2022-11-18T00:56:44;8.70;99.90
21149;DHT22;10732;51.472;6.466;2022-11-18T00:59:10;8.80;99.90
21149;DHT22;10732;51.472;6.466;2022-11-18T01:01:35;8.80;99.90
21149;DHT22;10732;51.472;6.466;2022-11-18T01:04:01;8.80;99.90
21149;DHT22;10732;51.472;6.466;2022-11-18T01:06:28;8.70;99.90
21149;DHT22;10732;51.472;6.466;2022-11-18T01:08:54;8.70;99.90
21149;DHT22;10732;51.472;6.466;2022-11-18T01:11:19;8.70;99.90
21149;DHT22;10732;51.472;6.466;2022-11-18T01:14:03;8.70;99.90
21149;DHT22;10732;51.472;6.466;2022-11-18T01:16:29;8.80;99.90
21149;DHT22;10732;51.472;6.466;2022-11-18T01:18:55;8.80;99.90
21149;DHT22;10732;51.472;6.466;2022-11-18T01:21:21;8.80;99.90
21149;DHT22;10732;51.472;6.466;2022-11-18T01:23:47;8.80;99.90
21149;DHT22;10732;51.472;6.466;2022-11-18T01:26:15;8.80;99.90
21149;DHT22;10732;51.472;6.466;2022-11-18T01:28:40;8.70;99.90
21149;DHT22;10732;51.472;6.466;2022-11-18T01:31:08;8.70;99.90
21149;DHT22;10732;51.472;6.466;2022-11-18T01:33:34;8.70;99.90
21149;DHT22;10732;51.472;6.466;2022-11-18T01:36:00;8.70;99.90
21149;DHT22;10732;51.472;6.466;2022-11-18T01:38:25;8.70;99.90
21149;DHT22;10732;51.472;6.466;2022-11-18T01:40:53;8.70;99.90
21149;DHT22;10732;51.472;6.466;2022-11-18T01:43:20;8.70;99.90
21149;DHT22;10732;51.472;6.466;2022-11-18T01:45:48;8.70;99.90
21149;DHT22;10732;51.472;6.466;2022-11-18T01:48:27;8.80;99.90
21149;DHT22;10732;51.472;6.466;2022-11-18T01:51:01;8.80;99.90
21149;DHT22;10732;51.472;6.466;2022-11-18T01:53:32;8.70;99.90
21149;DHT22;10732;51.472;6.466;2022-11-18T01:56:01;8.70;99.90
21149;DHT22;10732;51.472;6.466;2022-11-18T01:58:41;8.70;99.90
21149;DHT22;10732;51.472;6.466;2022-11-18T02:01:08;8.70;99.90
21149;DHT22;10732;51.472;6.466;2022-11-18T02:03:34;8.70;99.90
21149;DHT22;10732;51.472;6.466;2022-11-18T02:06:01;8.70;99.90
21149;DHT22;10732;51.472;6.466;2022-11-18T02:08:28;8.70;99.90
21149;DHT22;10732;51.472;6.466;2022-11-18T02:10:54;8.70;99.90
21149;DHT22;10732;51.472;6.466;2022-11-18T02:13:20;8.70;99.90
21149;DHT22;10732;51.472;6.466;2022-11-18T02:15:52;8.60;99.90
21149;DHT22;10732;51.472;6.466;2022-11-18T02:18:48;8.60;99.90
21149;DHT22;10732;51.472;6.466;2022-11-18T02:26:43;8.60;99.90
21149;DHT22;10732;51.472;6.466;2022-11-18T02:29:24;8.60;99.90
21149;DHT22;10732;51.472;6.466;2022-11-18T02:32:07;8.60;99.90
21149;DHT22;10732;51.472;6.466;2022-11-18T02:37:49;8.70;99.90
21149;DHT22;10732;51.472;6.466;2022-11-18T02:40:19;8.60;99.90
21149;DHT22;10732;51.472;6.466;2022-11-18T02:42:51;8.60;99.90
21149;DHT22;10732;51.472;6.466;2022-11-18T02:45:18;8.60;99.90
21149;DHT22;10732;51.472;6.466;2022-11-18T02:47:46;8.60;99.90
21149;DHT22;10732;51.472;6.466;2022-11-18T02:50:17;8.60;99.90
21149;DHT22;10732;51.472;6.466;2022-11-18T02:52:45;8.60;99.90
21149;DHT22;10732;51.472;6.466;2022-11-18T02:55:12;8.60;99.90
21149;DHT22;10732;51.472;6.466;2022-11-18T02:57:39;8.60;99.90
21149;DHT22;10732;51.472;6.466;2022-11-18T03:00:06;8.60;99.90
21149;DHT22;10732;51.472;6.466;2022-11-18T03:02:40;8.60;99.90
21149;DHT22;10732;51.472;6.466;2022-11-18T03:05:14;8.60;99.90
21149;DHT22;10732;51.472;6.466;2022-11-18T03:07:42;8.50;99.90
21149;DHT22;10732;51.472;6.466;2022-11-18T03:10:08;8.60;99.90
21149;DHT22;10732;51.472;6.466;2022-11-18T03:15:22;8.50;99.90
21149;DHT22;10732;51.472;6.466;2022-11-18T03:21:14;8.50;99.90
21149;DHT22;10732;51.472;6.466;2022-11-18T03:24:02;8.50;99.90
21149;DHT22;10732;51.472;6.466;2022-11-18T03:26:35;8.50;99.90
21149;DHT22;10732;51.472;6.466;2022-11-18T03:29:15;8.50;99.90
21149;DHT22;10732;51.472;6.466;2022-11-18T03:31:46;8.50;99.90
21149;DHT22;10732;51.472;6.466;2022-11-18T03:34:17;8.50;99.90
21149;DHT22;10732;51.472;6.466;2022-11-18T03:36:47;8.50;99.90
21149;DHT22;10732;51.472;6.466;2022-11-18T03:39:16;8.60;99.90
21149;DHT22;10732;51.472;6.466;2022-11-18T03:41:47;8.50;99.90
21149;DHT22;10732;51.472;6.466;2022-11-18T03:44:18;8.50;99.90
21149;DHT22;10732;51.472;6.466;2022-11-18T03:46:50;8.50;99.90
21149;DHT22;10732;51.472;6.466;2022-11-18T03:49:27;8.50;99.90
21149;DHT22;10732;51.472;6.466;2022-11-18T03:51:57;8.50;99.90
21149;DHT22;10732;51.472;6.466;2022-11-18T03:54:28;8.50;99.90
21149;DHT22;10732;51.472;6.466;2022-11-18T03:57:17;8.50;99.90
21149;DHT22;10732;51.472;6.466;2022-11-18T03:59:44;8.50;99.90
21149;DHT22;10732;51.472;6.466;2022-11-18T04:02:14;8.60;99.90
21149;DHT22;10732;51.472;6.466;2022-11-18T04:04:43;8.50;99.90
21149;DHT22;10732;51.472;6.466;2022-11-18T04:07:23;8.60;99.90
21149;DHT22;10732;51.472;6.466;2022-11-18T04:10:18;8.50;99.90
21149;DHT22;10732;51.472;6.466;2022-11-18T04:12:58;8.60;99.90
21149;DHT22;10732;51.472;6.466;2022-11-18T04:15:27;8.50;99.90
21149;DHT22;10732;51.472;6.466;2022-11-18T04:17:54;8.50;99.90
21149;DHT22;10732;51.472;6.466;2022-11-18T04:20:21;8.60;99.90
21149;DHT22;10732;51.472;6.466;2022-11-18T04:22:46;8.50;99.90
21149;DHT22;10732;51.472;6.466;2022-11-18T04:25:12;8.60;99.90
21149;DHT22;10732;51.472;6.466;2022-11-18T04:27:37;8.50;99.90
21149;DHT22;10732;51.472;6.466;2022-11-18T04:30:04;8.50;99.90
21149;DHT22;10732;51.472;6.466;2022-11-18T04:32:30;8.50;99.90
21149;DHT22;10732;51.472;6.466;2022-11-18T04:34:56;8.50;99.90
21149;DHT22;10732;51.472;6.466;2022-11-18T04:37:21;8.40;99.90
21149;DHT22;10732;51.472;6.466;2022-11-18T04:39:47;8.40;99.90
21149;DHT22;10732;51.472;6.466;2022-11-18T04:42:12;8.30;99.90
21149;DHT22;10732;51.472;6.466;2022-11-18T04:44:38;8.30;99.90
21149;DHT22;10732;51.472;6.466;2022-11-18T04:47:05;8.20;99.90
21149;DHT22;10732;51.472;6.466;2022-11-18T04:49:32;8.20;99.90
21149;DHT22;10732;51.472;6.466;2022-11-18T04:51:58;8.10;99.90
21149;DHT22;10732;51.472;6.466;2022-11-18T04:54:25;8.10;99.90
21149;DHT22;10732;51.472;6.466;2022-11-18T04:56:52;8.10;99.90
21149;DHT22;10732;51.472;6.466;2022-11-18T04:59:20;8.00;99.90
21149;DHT22;10732;51.472;6.466;2022-11-18T05:01:47;8.00;99.90
21149;DHT22;10732;51.472;6.466;2022-11-18T05:04:14;7.90;99.90
21149;DHT22;10732;51.472;6.466;2022-11-18T05:06:41;7.90;99.90
21149;DHT22;10732;51.472;6.466;2022-11-18T05:09:06;7.90;99.90
21149;DHT22;10732;51.472;6.466;2022-11-18T05:11:32;7.90;99.90
21149;DHT22;10732;51.472;6.466;2022-11-18T05:14:16;7.90;99.90
21149;DHT22;10732;51.472;6.466;2022-11-18T05:16:45;7.90;99.90
21149;DHT22;10732;51.472;6.466;2022-11-18T05:19:10;7.90;99.90
21149;DHT22;10732;51.472;6.466;2022-11-18T05:21:36;7.90;99.90
21149;DHT22;10732;51.472;6.466;2022-11-18T05:24:03;8.00;99.90
21149;DHT22;10732;51.472;6.466;2022-11-18T05:26:28;8.00;99.90
21149;DHT22;10732;51.472;6.466;2022-11-18T05:28:55;8.00;99.90
21149;DHT22;10732;51.472;6.466;2022-11-18T05:31:20;8.10;99.90
21149;DHT22;10732;51.472;6.466;2022-11-18T05:33:46;8.10;99.90
21149;DHT22;10732;51.472;6.466;2022-11-18T05:36:14;8.10;99.90
21149;DHT22;10732;51.472;6.466;2022-11-18T05:38:40;8.10;99.90
21149;DHT22;10732;51.472;6.466;2022-11-18T05:41:06;8.20;99.90
21149;DHT22;10732;51.472;6.466;2022-11-18T05:43:33;8.20;99.90
21149;DHT22;10732;51.472;6.466;2022-11-18T05:45:59;8.20;99.90
21149;DHT22;10732;51.472;6.466;2022-11-18T05:48:25;8.20;99.90
21149;DHT22;10732;51.472;6.466;2022-11-18T05:50:52;8.30;99.90
21149;DHT22;10732;51.472;6.466;2022-11-18T05:53:20;8.30;99.90
21149;DHT22;10732;51.472;6.466;2022-11-18T05:56:06;8.30;99.90
21149;DHT22;10732;51.472;6.466;2022-11-18T05:58:36;8.40;99.90
21149;DHT22;10732;51.472;6.466;2022-11-18T06:01:04;8.40;99.90
21149;DHT22;10732;51.472;6.466;2022-11-18T06:03:31;8.40;99.90
21149;DHT22;10732;51.472;6.466;2022-11-18T06:06:01;8.40;99.90
21149;DHT22;10732;51.472;6.466;2022-11-18T06:08:32;8.40;99.90
21149;DHT22;10732;51.472;6.466;2022-11-18T06:10:58;8.40;99.90
21149;DHT22;10732;51.472;6.466;2022-11-18T06:13:28;8.40;99.90
21149;DHT22;10732;51.472;6.466;2022-11-18T06:15:56;8.40;99.90
21149;DHT22;10732;51.472;6.466;2022-11-18T06:18:27;8.40;99.90
21149;DHT22;10732;51.472;6.466;2022-11-18T06:20:59;8.30;99.90
21149;DHT22;10732;51.472;6.466;2022-11-18T06:23:26;8.30;99.90
21149;DHT22;10732;51.472;6.466;2022-11-18T06:25:53;8.40;99.90
21149;DHT22;10732;51.472;6.466;2022-11-18T06:28:19;8.40;99.90
21149;DHT22;10732;51.472;6.466;2022-11-18T06:30:46;8.30;99.90
21149;DHT22;10732;51.472;6.466;2022-11-18T06:33:11;8.40;99.90
21149;DHT22;10732;51.472;6.466;2022-11-18T06:35:37;8.40;99.90
21149;DHT22;10732;51.472;6.466;2022-11-18T06:38:03;8.40;99.90
21149;DHT22;10732;51.472;6.466;2022-11-18T06:40:29;8.40;99.90
21149;DHT22;10732;51.472;6.466;2022-11-18T06:42:54;8.30;99.90
21149;DHT22;10732;51.472;6.466;2022-11-18T06:45:38;8.30;99.90
21149;DHT22;10732;51.472;6.466;2022-11-18T06:48:24;8.30;99.90
21149;DHT22;10732;51.472;6.466;2022-11-18T06:50:49;8.40;99.90
21149;DHT22;10732;51.472;6.466;2022-11-18T06:53:15;8.40;99.90
21149;DHT22;10732;51.472;6.466;2022-11-18T06:55:40;8.40;99.90
21149;DHT22;10732;51.472;6.466;2022-11-18T06:58:06;8.40;99.90
21149;DHT22;10732;51.472;6.466;2022-11-18T07:00:31;8.50;99.90
21149;DHT22;10732;51.472;6.466;2022-11-18T07:02:57;8.50;99.90
21149;DHT22;10732;51.472;6.466;2022-11-18T07:05:22;8.40;99.90
21149;DHT22;10732;51.472;6.466;2022-11-18T07:07:48;8.50;99.90
21149;DHT22;10732;51.472;6.466;2022-11-18T07:10:13;8.40;99.90
21149;DHT22;10732;51.472;6.466;2022-11-18T07:12:39;8.40;99.90
21149;DHT22;10732;51.472;6.466;2022-11-18T07:15:05;8.40;99.90
21149;DHT22;10732;51.472;6.466;2022-11-18T07:17:30;8.40;99.90
21149;DHT22;10732;51.472;6.466;2022-11-18T07:19:56;8.40;99.90
21149;DHT22;10732;51.472;6.466;2022-11-18T07:22:21;8.30;99.90
21149;DHT22;10732;51.472;6.466;2022-11-18T07:24:47;8.30;99.90
21149;DHT22;10732;51.472;6.466;2022-11-18T07:27:12;8.20;99.90
21149;DHT22;10732;51.472;6.466;2022-11-18T07:29:38;8.20;99.90
21149;DHT22;10732;51.472;6.466;2022-11-18T07:32:05;8.10;99.90
21149;DHT22;10732;51.472;6.466;2022-11-18T07:34:30;8.10;99.90
21149;DHT22;10732;51.472;6.466;2022-11-18T07:36:56;8.10;99.90
21149;DHT22;10732;51.472;6.466;2022-11-18T07:39:21;8.10;99.90
21149;DHT22;10732;51.472;6.466;2022-11-18T07:41:47;8.10;99.90
21149;DHT22;10732;51.472;6.466;2022-11-18T07:44:12;8.20;99.90
21149;DHT22;10732;51.472;6.466;2022-11-18T07:46:38;8.20;99.90
21149;DHT22;10732;51.472;6.466;2022-11-18T07:49:06;8.30;99.90
21149;DHT22;10732;51.472;6.466;2022-11-18T07:51:35;8.30;99.90
21149;DHT22;10732;51.472;6.466;2022-11-18T07:54:08;8.30;99.90
21149;DHT22;10732;51.472;6.466;2022-11-18T07:56:34;8.40;99.90
21149;DHT22;10732;51.472;6.466;2022-11-18T07:58:59;8.40;99.90
21149;DHT22;10732;51.472;6.466;2022-11-18T08:01:25;8.60;99.90
21149;DHT22;10732;51.472;6.466;2022-11-18T08:03:56;8.60;99.90
21149;DHT22;10732;51.472;6.466;2022-11-18T08:06:22;8.70;99.90
21149;DHT22;10732;51.472;6.466;2022-11-18T08:08:48;8.70;99.90
21149;DHT22;10732;51.472;6.466;2022-11-18T08:11:16;8.70;99.90
21149;DHT22;10732;51.472;6.466;2022-11-18T08:13:42;8.70;99.90
21149;DHT22;10732;51.472;6.466;2022-11-18T08:16:19;8.80;99.90
21149;DHT22;10732;51.472;6.466;2022-11-18T08:18:45;8.80;99.90
21149;DHT22;10732;51.472;6.466;2022-11-18T08:21:12;8.80;99.90
21149;DHT22;10732;51.472;6.466;2022-11-18T08:23:38;8.80;99.90
21149;DHT22;10732;51.472;6.466;2022-11-18T08:26:11;8.80;99.90
21149;DHT22;10732;51.472;6.466;2022-11-18T08:28:38;8.90;99.90
21149;DHT22;10732;51.472;6.466;2022-11-18T08:31:18;9.20;99.90
21149;DHT22;10732;51.472;6.466;2022-11-18T08:33:44;9.50;99.90
21149;DHT22;10732;51.472;6.466;2022-11-18T08:36:17;9.90;99.90
21149;DHT22;10732;51.472;6.466;2022-11-18T08:38:43;10.10;99.90
21149;DHT22;10732;51.472;6.466;2022-11-18T08:41:11;10.40;99.90
21149;DHT22;10732;51.472;6.466;2022-11-18T08:43:38;10.70;99.90
21149;DHT22;10732;51.472;6.466;2022-11-18T08:46:06;11.30;99.90
21149;DHT22;10732;51.472;6.466;2022-11-18T08:48:31;11.80;99.90
21149;DHT22;10732;51.472;6.466;2022-11-18T08:50:57;11.70;99.90
21149;DHT22;10732;51.472;6.466;2022-11-18T08:53:23;11.60;99.90
21149;DHT22;10732;51.472;6.466;2022-11-18T08:55:57;11.80;99.90
21149;DHT22;10732;51.472;6.466;2022-11-18T08:58:24;11.90;99.90
21149;DHT22;10732;51.472;6.466;2022-11-18T09:00:49;12.10;99.90
21149;DHT22;10732;51.472;6.466;2022-11-18T09:03:15;11.90;99.90
21149;DHT22;10732;51.472;6.466;2022-11-18T09:05:40;11.80;99.90
21149;DHT22;10732;51.472;6.466;2022-11-18T09:08:06;11.60;99.90
21149;DHT22;10732;51.472;6.466;2022-11-18T09:10:31;11.30;99.90
21149;DHT22;10732;51.472;6.466;2022-11-18T09:12:59;11.20;99.90
21149;DHT22;10732;51.472;6.466;2022-11-18T09:15:24;10.90;99.90
21149;DHT22;10732;51.472;6.466;2022-11-18T09:17:51;11.60;99.90
21149;DHT22;10732;51.472;6.466;2022-11-18T09:20:17;12.80;99.90
21149;DHT22;10732;51.472;6.466;2022-11-18T09:22:42;13.80;99.90
21149;DHT22;10732;51.472;6.466;2022-11-18T09:25:08;13.60;99.90
21149;DHT22;10732;51.472;6.466;2022-11-18T09:27:34;12.80;99.90
21149;DHT22;10732;51.472;6.466;2022-11-18T09:29:59;12.50;99.90
21149;DHT22;10732;51.472;6.466;2022-11-18T09:32:25;12.50;99.90
21149;DHT22;10732;51.472;6.466;2022-11-18T09:34:50;13.40;99.90
21149;DHT22;10732;51.472;6.466;2022-11-18T09:37:16;14.50;98.20
21149;DHT22;10732;51.472;6.466;2022-11-18T09:39:42;14.60;99.90
21149;DHT22;10732;51.472;6.466;2022-11-18T09:42:36;15.20;99.90
21149;DHT22;10732;51.472;6.466;2022-11-18T09:47:41;15.50;1.00
21149;DHT22;10732;51.472;6.466;2022-11-18T09:50:15;15.50;1.00
21149;DHT22;10732;51.472;6.466;2022-11-18T09:53:14;15.10;99.90
21149;DHT22;10732;51.472;6.466;2022-11-18T09:55:42;15.60;1.00
21149;DHT22;10732;51.472;6.466;2022-11-18T09:58:55;15.80;1.00
21149;DHT22;10732;51.472;6.466;2022-11-18T10:01:02;16.00;45.70
21149;DHT22;10732;51.472;6.466;2022-11-18T10:03:33;15.90;1.00
21149;DHT22;10732;51.472;6.466;2022-11-18T10:08:43;15.50;1.00
21149;DHT22;10732;51.472;6.466;2022-11-18T10:11:18;16.10;1.00
21149;DHT22;10732;51.472;6.466;2022-11-18T10:17:07;16.40;99.90
21149;DHT22;10732;51.472;6.466;2022-11-18T10:19:44;16.00;1.00
21149;DHT22;10732;51.472;6.466;2022-11-18T10:25:13;15.50;1.00
21149;DHT22;10732;51.472;6.466;2022-11-18T10:27:41;16.00;1.00
21149;DHT22;10732;51.472;6.466;2022-11-18T10:30:18;16.20;1.00
21149;DHT22;10732;51.472;6.466;2022-11-18T10:32:58;16.60;1.00
21149;DHT22;10732;51.472;6.466;2022-11-18T10:35:42;16.80;1.00
21149;DHT22;10732;51.472;6.466;2022-11-18T10:40:59;15.90;1.00
21149;DHT22;10732;51.472;6.466;2022-11-18T10:43:45;15.50;1.00
21149;DHT22;10732;51.472;6.466;2022-11-18T10:46:33;15.10;99.90
21149;DHT22;10732;51.472;6.466;2022-11-18T10:54:07;16.60;99.90
21149;DHT22;10732;51.472;6.466;2022-11-18T10:59:32;15.10;1.00
21149;DHT22;10732;51.472;6.466;2022-11-18T11:04:50;16.00;99.90
21149;DHT22;10732;51.472;6.466;2022-11-18T11:12:32;15.40;1.00
21149;DHT22;10732;51.472;6.466;2022-11-18T11:15:12;15.00;86.00
21149;DHT22;10732;51.472;6.466;2022-11-18T11:17:44;14.40;1.00
21149;DHT22;10732;51.472;6.466;2022-11-18T11:20:19;14.50;99.90
21149;DHT22;10732;51.472;6.466;2022-11-18T11:22:45;14.30;1.00
21149;DHT22;10732;51.472;6.466;2022-11-18T11:25:15;14.00;1.00
21149;DHT22;10732;51.472;6.466;2022-11-18T11:28:06;14.00;99.90
21149;DHT22;10732;51.472;6.466;2022-11-18T11:30:36;14.10;99.90
21149;DHT22;10732;51.472;6.466;2022-11-18T11:33:18;14.70;1.00
21149;DHT22;10732;51.472;6.466;2022-11-18T11:36:20;15.00;1.00
21149;DHT22;10732;51.472;6.466;2022-11-18T11:41:53;14.60;99.90
21149;DHT22;10732;51.472;6.466;2022-11-18T11:50:57;14.40;1.00
21149;DHT22;10732;51.472;6.466;2022-11-18T11:53:45;14.50;1.00
21149;DHT22;10732;51.472;6.466;2022-11-18T12:04:52;14.10;1.00
21149;DHT22;10732;51.472;6.466;2022-11-18T12:07:31;13.70;1.00
21149;DHT22;10732;51.472;6.466;2022-11-18T12:13:10;13.40;1.00
21149;DHT22;10732;51.472;6.466;2022-11-18T12:18:22;13.50;1.00
21149;DHT22;10732;51.472;6.466;2022-11-18T12:20:52;13.40;1.00
21149;DHT22;10732;51.472;6.466;2022-11-18T12:23:25;12.70;1.00
21149;DHT22;10732;51.472;6.466;2022-11-18T12:25:57;12.60;1.00
21149;DHT22;10732;51.472;6.466;2022-11-18T12:28:34;12.50;99.90
21149;DHT22;10732;51.472;6.466;2022-11-18T12:33:50;12.70;99.90
21149;DHT22;10732;51.472;6.466;2022-11-18T12:36:37;12.60;1.00
21149;DHT22;10732;51.472;6.466;2022-11-18T12:42:03;12.50;1.00
21149;DHT22;10732;51.472;6.466;2022-11-18T12:44:50;12.40;1.00
21149;DHT22;10732;51.472;6.466;2022-11-18T12:50:08;13.00;1.00
21149;DHT22;10732;51.472;6.466;2022-11-18T12:55:02;12.90;1.00
21149;DHT22;10732;51.472;6.466;2022-11-18T12:57:31;12.70;1.00
21149;DHT22;10732;51.472;6.466;2022-11-18T12:59:57;12.80;1.00
21149;DHT22;10732;51.472;6.466;2022-11-18T13:02:27;12.90;1.00
21149;DHT22;10732;51.472;6.466;2022-11-18T13:05:22;12.80;1.00
21149;DHT22;10732;51.472;6.466;2022-11-18T13:07:58;12.90;99.90
21149;DHT22;10732;51.472;6.466;2022-11-18T13:13:21;12.80;1.00
21149;DHT22;10732;51.472;6.466;2022-11-18T13:15:47;12.70;1.00
21149;DHT22;10732;51.472;6.466;2022-11-18T13:18:31;12.60;1.00
21149;DHT22;10732;51.472;6.466;2022-11-18T13:20:59;12.70;1.00
21149;DHT22;10732;51.472;6.466;2022-11-18T13:23:48;12.70;99.90
21149;DHT22;10732;51.472;6.466;2022-11-18T13:26:28;12.80;1.00
21149;DHT22;10732;51.472;6.466;2022-11-18T13:29:37;12.70;1.00
21149;DHT22;10732;51.472;6.466;2022-11-18T13:32:18;12.40;1.00
21149;DHT22;10732;51.472;6.466;2022-11-18T13:34:47;12.40;99.90
21149;DHT22;10732;51.472;6.466;2022-11-18T13:37:17;12.40;1.00
21149;DHT22;10732;51.472;6.466;2022-11-18T13:39:45;12.40;1.00
21149;DHT22;10732;51.472;6.466;2022-11-18T13:44:55;12.30;99.90
21149;DHT22;10732;51.472;6.466;2022-11-18T13:47:40;12.30;1.00
21149;DHT22;10732;51.472;6.466;2022-11-18T13:55:50;12.10;1.00
21149;DHT22;10732;51.472;6.466;2022-11-18T14:01:00;11.80;1.00
21149;DHT22;10732;51.472;6.466;2022-11-18T14:03:30;11.70;24.30
21149;DHT22;10732;51.472;6.466;2022-11-18T14:05:57;11.60;1.00
21149;DHT22;10732;51.472;6.466;2022-11-18T14:08:27;11.50;85.30
21149;DHT22;10732;51.472;6.466;2022-11-18T14:10:53;11.50;99.90
21149;DHT22;10732;51.472;6.466;2022-11-18T14:15:47;11.40;99.90
21149;DHT22;10732;51.472;6.466;2022-11-18T14:18:31;11.30;99.90
21149;DHT22;10732;51.472;6.466;2022-11-18T14:20:58;11.30;99.90
21149;DHT22;10732;51.472;6.466;2022-11-18T14:23:33;11.30;99.90
21149;DHT22;10732;51.472;6.466;2022-11-18T14:26:00;11.20;99.90
21149;DHT22;10732;51.472;6.466;2022-11-18T14:28:29;11.20;99.90
21149;DHT22;10732;51.472;6.466;2022-11-18T14:33:35;11.20;99.90
21149;DHT22;10732;51.472;6.466;2022-11-18T14:36:13;11.20;99.90
21149;DHT22;10732;51.472;6.466;2022-11-18T14:38:46;11.20;99.90
21149;DHT22;10732;51.472;6.466;2022-11-18T14:41:14;11.10;99.90
21149;DHT22;10732;51.472;6.466;2022-11-18T14:43:41;11.00;99.90
21149;DHT22;10732;51.472;6.466;2022-11-18T14:46:14;10.90;99.90
21149;DHT22;10732;51.472;6.466;2022-11-18T14:48:41;10.80;99.90
21149;DHT22;10732;51.472;6.466;2022-11-18T14:51:11;10.90;99.90
21149;DHT22;10732;51.472;6.466;2022-11-18T14:53:37;10.90;99.90
21149;DHT22;10732;51.472;6.466;2022-11-18T14:56:02;10.90;99.90
21149;DHT22;10732;51.472;6.466;2022-11-18T14:58:28;10.80;99.90
21149;DHT22;10732;51.472;6.466;2022-11-18T15:00:54;10.70;99.90
21149;DHT22;10732;51.472;6.466;2022-11-18T15:03:20;10.70;99.90
21149;DHT22;10732;51.472;6.466;2022-11-18T15:05:45;10.60;99.90
21149;DHT22;10732;51.472;6.466;2022-11-18T15:08:11;10.50;99.90
21149;DHT22;10732;51.472;6.466;2022-11-18T15:10:36;10.50;99.90
21149;DHT22;10732;51.472;6.466;2022-11-18T15:13:02;10.50;99.90
21149;DHT22;10732;51.472;6.466;2022-11-18T15:15:28;10.50;99.90
21149;DHT22;10732;51.472;6.466;2022-11-18T15:17:53;10.50;99.90
21149;DHT22;10732;51.472;6.466;2022-11-18T15:20:20;10.40;99.90
21149;DHT22;10732;51.472;6.466;2022-11-18T15:22:46;10.40;99.90
21149;DHT22;10732;51.472;6.466;2022-11-18T15:25:12;10.40;99.90
21149;DHT22;10732;51.472;6.466;2022-11-18T15:27:37;10.30;99.90
21149;DHT22;10732;51.472;6.466;2022-11-18T15:30:04;10.20;99.90
21149;DHT22;10732;51.472;6.466;2022-11-18T15:32:29;10.10;99.90
21149;DHT22;10732;51.472;6.466;2022-11-18T15:34:55;10.00;99.90
21149;DHT22;10732;51.472;6.466;2022-11-18T15:37:20;10.00;99.90
21149;DHT22;10732;51.472;6.466;2022-11-18T15:39:46;9.90;99.90
21149;DHT22;10732;51.472;6.466;2022-11-18T15:42:15;9.80;99.90
21149;DHT22;10732;51.472;6.466;2022-11-18T15:44:42;9.70;99.90
21149;DHT22;10732;51.472;6.466;2022-11-18T15:47:08;9.60;99.90
21149;DHT22;10732;51.472;6.466;2022-11-18T15:49:33;9.60;99.90
21149;DHT22;10732;51.472;6.466;2022-11-18T15:51:59;9.50;99.90
21149;DHT22;10732;51.472;6.466;2022-11-18T15:54:24;9.50;99.90
21149;DHT22;10732;51.472;6.466;2022-11-18T15:56:50;9.50;99.90
21149;DHT22;10732;51.472;6.466;2022-11-18T15:59:15;9.50;99.90
21149;DHT22;10732;51.472;6.466;2022-11-18T16:01:46;9.50;99.90
21149;DHT22;10732;51.472;6.466;2022-11-18T16:04:15;9.50;99.90
21149;DHT22;10732;51.472;6.466;2022-11-18T16:06:41;9.60;99.90
21149;DHT22;10732;51.472;6.466;2022-11-18T16:09:11;9.50;99.90
21149;DHT22;10732;51.472;6.466;2022-11-18T16:11:37;9.50;99.90
21149;DHT22;10732;51.472;6.466;2022-11-18T16:14:22;9.40;99.90
21149;DHT22;10732;51.472;6.466;2022-11-18T16:16:49;9.40;99.90
21149;DHT22;10732;51.472;6.466;2022-11-18T16:19:18;9.40;99.90
21149;DHT22;10732;51.472;6.466;2022-11-18T16:21:46;9.40;99.90
21149;DHT22;10732;51.472;6.466;2022-11-18T16:24:17;9.50;99.90
21149;DHT22;10732;51.472;6.466;2022-11-18T16:26:43;9.50;99.90
21149;DHT22;10732;51.472;6.466;2022-11-18T16:29:10;9.50;99.90
21149;DHT22;10732;51.472;6.466;2022-11-18T16:31:36;9.50;99.90
21149;DHT22;10732;51.472;6.466;2022-11-18T16:34:09;9.50;99.90
21149;DHT22;10732;51.472;6.466;2022-11-18T16:36:37;9.50;99.90
21149;DHT22;10732;51.472;6.466;2022-11-18T16:39:08;9.50;99.90
21149;DHT22;10732;51.472;6.466;2022-11-18T16:41:34;9.50;99.90
21149;DHT22;10732;51.472;6.466;2022-11-18T16:44:05;9.50;99.90
21149;DHT22;10732;51.472;6.466;2022-11-18T16:46:34;9.50;99.90
21149;DHT22;10732;51.472;6.466;2022-11-18T16:49:01;9.50;99.90
21149;DHT22;10732;51.472;6.466;2022-11-18T16:51:28;9.50;99.90
21149;DHT22;10732;51.472;6.466;2022-11-18T16:53:56;9.50;99.90
21149;DHT22;10732;51.472;6.466;2022-11-18T16:56:25;9.60;99.90
21149;DHT22;10732;51.472;6.466;2022-11-18T16:58:59;9.60;99.90
21149;DHT22;10732;51.472;6.466;2022-11-18T17:01:25;9.70;99.90
21149;DHT22;10732;51.472;6.466;2022-11-18T17:03:52;9.60;99.90
21149;DHT22;10732;51.472;6.466;2022-11-18T17:06:18;9.60;99.90
21149;DHT22;10732;51.472;6.466;2022-11-18T17:08:43;9.70;99.90
21149;DHT22;10732;51.472;6.466;2022-11-18T17:11:10;9.60;99.90
21149;DHT22;10732;51.472;6.466;2022-11-18T17:13:36;9.50;99.90
21149;DHT22;10732;51.472;6.466;2022-11-18T17:16:39;9.40;99.90
21149;DHT22;10732;51.472;6.466;2022-11-18T17:18:59;9.40;99.90
21149;DHT22;10732;51.472;6.466;2022-11-18T17:21:26;9.40;99.90
21149;DHT22;10732;51.472;6.466;2022-11-18T17:23:52;9.40;99.90
21149;DHT22;10732;51.472;6.466;2022-11-18T17:26:20;9.40;99.90
21149;DHT22;10732;51.472;6.466;2022-11-18T17:28:46;9.40;99.90
21149;DHT22;10732;51.472;6.466;2022-11-18T17:31:14;9.30;99.90
21149;DHT22;10732;51.472;6.466;2022-11-18T17:33:41;9.20;99.90
21149;DHT22;10732;51.472;6.466;2022-11-18T17:36:09;9.20;99.90